BLY47WS EINN-EGNT
Flight info
| Callsign | BLY47WS |
|---|---|
| Flight time | 0h 59m |
| Altitude | 37000 |
| Route | OSGAR DCT ENDEQ Q36 ALAVA Z195 MALUD UL975 WAL DCT POL |
| Aircraft | A320/M-SDE3FGHIRWY/LB1 |
Departure
| Time | 2026-05-08 19:14 |
|---|---|
| Airport | Shannon Airport (EINN) |
Arrival
| Time | 2026-05-08 20:13 |
|---|---|
| Airport | Newcastle International Airport (EGNT) |
| Time | Latitude | Longitude | Altitude | Speed | Heading |
|---|---|---|---|---|---|
| 2026-05-08 18:53 | 52.69368 | -8.92067 | 24 ft | 0 kts | 191° |
| 2026-05-08 19:08 | 52.69389 | -8.92060 | 21 ft | 4 kts | 191° |
| 2026-05-08 19:08 | 52.69416 | -8.92053 | 21 ft | 4 kts | 191° |
| 2026-05-08 19:08 | 52.69441 | -8.92041 | 21 ft | 4 kts | 210° |
| 2026-05-08 19:09 | 52.69458 | -8.92015 | 22 ft | 4 kts | 264° |
| 2026-05-08 19:09 | 52.69457 | -8.91996 | 23 ft | 1 kts | 283° |
| 2026-05-08 19:09 | 52.69457 | -8.91995 | 24 ft | 0 kts | 283° |
| 2026-05-08 19:11 | 52.69460 | -8.92013 | 22 ft | 5 kts | 283° |
| 2026-05-08 19:11 | 52.69476 | -8.92129 | 21 ft | 12 kts | 283° |
| 2026-05-08 19:12 | 52.69509 | -8.92267 | 21 ft | 14 kts | 296° |
| 2026-05-08 19:12 | 52.69567 | -8.92405 | 22 ft | 16 kts | 314° |
| 2026-05-08 19:12 | 52.69660 | -8.92555 | 23 ft | 19 kts | 316° |
| 2026-05-08 19:12 | 52.69756 | -8.92709 | 22 ft | 20 kts | 316° |
| 2026-05-08 19:13 | 52.69852 | -8.92868 | 22 ft | 18 kts | 315° |
| 2026-05-08 19:13 | 52.69940 | -8.92972 | 23 ft | 15 kts | 2° |
| 2026-05-08 19:13 | 52.70049 | -8.92794 | 20 ft | 43 kts | 52° |
| 2026-05-08 19:13 | 52.70392 | -8.92071 | 16 ft | 113 kts | 52° |
| 2026-05-08 19:14 | 52.70955 | -8.90902 | 363 ft | 130 kts | 46° |
| 2026-05-08 19:14 | 52.71516 | -8.89708 | 920 ft | 132 kts | 50° |
| 2026-05-08 19:14 | 52.72078 | -8.88507 | 1513 ft | 132 kts | 51° |
| 2026-05-08 19:14 | 52.72542 | -8.87157 | 1935 ft | 149 kts | 69° |
| 2026-05-08 19:15 | 52.72904 | -8.85403 | 2236 ft | 174 kts | 69° |
| 2026-05-08 19:15 | 52.73322 | -8.83386 | 2565 ft | 199 kts | 69° |
| 2026-05-08 19:15 | 52.73794 | -8.81094 | 3049 ft | 222 kts | 70° |
| 2026-05-08 19:15 | 52.74315 | -8.78567 | 3656 ft | 240 kts | 70° |
| 2026-05-08 19:16 | 52.74861 | -8.75915 | 4527 ft | 248 kts | 70° |
| 2026-05-08 19:16 | 52.75426 | -8.73186 | 5449 ft | 253 kts | 71° |
| 2026-05-08 19:16 | 52.76004 | -8.70409 | 6342 ft | 260 kts | 71° |
| 2026-05-08 19:16 | 52.76603 | -8.67540 | 7145 ft | 267 kts | 71° |
| 2026-05-08 19:17 | 52.77206 | -8.64653 | 8007 ft | 272 kts | 71° |
| 2026-05-08 19:17 | 52.77824 | -8.61681 | 8896 ft | 276 kts | 72° |
| 2026-05-08 19:17 | 52.78453 | -8.58652 | 9762 ft | 281 kts | 71° |
| 2026-05-08 19:17 | 52.79053 | -8.55781 | 10454 ft | 289 kts | 74° |
| 2026-05-08 19:18 | 52.79717 | -8.52496 | 10754 ft | 313 kts | 74° |
| 2026-05-08 19:18 | 52.80432 | -8.49015 | 11288 ft | 325 kts | 73° |
| 2026-05-08 19:18 | 52.81176 | -8.45440 | 12012 ft | 332 kts | 73° |
| 2026-05-08 19:18 | 52.81933 | -8.41805 | 12744 ft | 338 kts | 72° |
| 2026-05-08 19:19 | 52.82703 | -8.38108 | 13474 ft | 344 kts | 71° |
| 2026-05-08 19:19 | 52.83488 | -8.34323 | 14154 ft | 350 kts | 73° |
| 2026-05-08 19:19 | 52.84278 | -8.30490 | 14822 ft | 354 kts | 72° |
| 2026-05-08 19:19 | 52.85077 | -8.26597 | 15455 ft | 360 kts | 72° |
| 2026-05-08 19:20 | 52.85884 | -8.22660 | 16105 ft | 365 kts | 72° |
| 2026-05-08 19:20 | 52.86436 | -8.19961 | 16546 ft | 368 kts | 72° |
| 2026-05-08 19:20 | 52.87524 | -8.14610 | 17383 ft | 374 kts | 73° |
| 2026-05-08 19:20 | 52.88358 | -8.10491 | 18006 ft | 379 kts | 73° |
| 2026-05-08 19:21 | 52.89200 | -8.06316 | 18549 ft | 385 kts | 73° |
| 2026-05-08 19:21 | 52.90054 | -8.02081 | 19088 ft | 390 kts | 73° |
| 2026-05-08 19:21 | 52.90919 | -7.97809 | 19639 ft | 394 kts | 73° |
| 2026-05-08 19:21 | 52.91792 | -7.93490 | 20195 ft | 398 kts | 73° |
| 2026-05-08 19:22 | 52.92669 | -7.89122 | 20756 ft | 402 kts | 73° |
| 2026-05-08 19:22 | 52.93553 | -7.84700 | 21304 ft | 406 kts | 73° |
| 2026-05-08 19:22 | 52.94443 | -7.80249 | 21854 ft | 410 kts | 73° |
| 2026-05-08 19:22 | 52.95345 | -7.75734 | 22397 ft | 414 kts | 73° |
| 2026-05-08 19:23 | 52.96249 | -7.71190 | 22949 ft | 418 kts | 73° |
| 2026-05-08 19:23 | 52.97166 | -7.66586 | 23499 ft | 422 kts | 73° |
| 2026-05-08 19:23 | 52.98087 | -7.61953 | 23955 ft | 426 kts | 74° |
| 2026-05-08 19:23 | 52.99019 | -7.57261 | 24385 ft | 429 kts | 74° |
| 2026-05-08 19:24 | 52.99955 | -7.52532 | 24808 ft | 433 kts | 74° |
| 2026-05-08 19:24 | 53.00897 | -7.47768 | 25215 ft | 437 kts | 74° |
| 2026-05-08 19:24 | 53.01847 | -7.42946 | 25623 ft | 440 kts | 74° |
| 2026-05-08 19:24 | 53.02795 | -7.38092 | 26015 ft | 445 kts | 74° |
| 2026-05-08 19:25 | 53.03748 | -7.33187 | 26381 ft | 449 kts | 74° |
| 2026-05-08 19:25 | 53.04706 | -7.28235 | 26755 ft | 452 kts | 74° |
| 2026-05-08 19:25 | 53.05709 | -7.23247 | 27131 ft | 456 kts | 72° |
| 2026-05-08 19:25 | 53.06812 | -7.18287 | 27511 ft | 460 kts | 71° |
| 2026-05-08 19:26 | 53.07986 | -7.13332 | 27844 ft | 463 kts | 70° |
| 2026-05-08 19:26 | 53.09202 | -7.08341 | 28200 ft | 467 kts | 70° |
| 2026-05-08 19:26 | 53.10426 | -7.03308 | 28550 ft | 470 kts | 70° |
| 2026-05-08 19:26 | 53.11637 | -6.98246 | 28896 ft | 473 kts | 70° |
| 2026-05-08 19:27 | 53.12835 | -6.93128 | 29235 ft | 476 kts | 71° |
| 2026-05-08 19:27 | 53.14022 | -6.87961 | 29561 ft | 479 kts | 71° |
| 2026-05-08 19:27 | 53.15200 | -6.82755 | 29901 ft | 482 kts | 71° |
| 2026-05-08 19:27 | 53.16380 | -6.77510 | 30215 ft | 485 kts | 71° |
| 2026-05-08 19:28 | 53.17566 | -6.72233 | 30483 ft | 488 kts | 71° |
| 2026-05-08 19:28 | 53.18763 | -6.66929 | 30753 ft | 490 kts | 71° |
| 2026-05-08 19:28 | 53.19971 | -6.61595 | 31003 ft | 492 kts | 71° |
| 2026-05-08 19:28 | 53.21187 | -6.56249 | 31262 ft | 495 kts | 71° |
| 2026-05-08 19:29 | 53.22400 | -6.50902 | 31520 ft | 497 kts | 71° |
| 2026-05-08 19:29 | 53.23620 | -6.45502 | 31783 ft | 498 kts | 71° |
| 2026-05-08 19:29 | 53.24828 | -6.40125 | 32150 ft | 497 kts | 71° |
| 2026-05-08 19:29 | 53.26032 | -6.34737 | 32498 ft | 496 kts | 71° |
| 2026-05-08 19:30 | 53.27238 | -6.29321 | 32847 ft | 496 kts | 71° |
| 2026-05-08 19:30 | 53.28434 | -6.23949 | 33196 ft | 496 kts | 71° |
| 2026-05-08 19:30 | 53.29638 | -6.18529 | 33552 ft | 495 kts | 71° |
| 2026-05-08 19:30 | 53.30829 | -6.13144 | 33888 ft | 495 kts | 71° |
| 2026-05-08 19:31 | 53.32023 | -6.07734 | 34212 ft | 495 kts | 71° |
| 2026-05-08 19:31 | 53.33208 | -6.02342 | 34526 ft | 494 kts | 71° |
| 2026-05-08 19:31 | 53.34398 | -5.96913 | 34852 ft | 492 kts | 71° |
| 2026-05-08 19:31 | 53.35566 | -5.91570 | 35167 ft | 491 kts | 71° |
| 2026-05-08 19:32 | 53.36736 | -5.86212 | 35480 ft | 490 kts | 71° |
| 2026-05-08 19:32 | 53.37900 | -5.80868 | 35784 ft | 488 kts | 71° |
| 2026-05-08 19:32 | 53.39061 | -5.75526 | 36072 ft | 487 kts | 71° |
| 2026-05-08 19:32 | 53.40215 | -5.70208 | 36366 ft | 485 kts | 71° |
| 2026-05-08 19:33 | 53.41365 | -5.64894 | 36646 ft | 484 kts | 71° |
| 2026-05-08 19:33 | 53.42508 | -5.59603 | 36919 ft | 483 kts | 71° |
| 2026-05-08 19:33 | 53.43592 | -5.54273 | 37100 ft | 483 kts | 76° |
| 2026-05-08 19:34 | 53.44412 | -5.43103 | 37144 ft | 485 kts | 95° |
| 2026-05-08 19:34 | 53.44118 | -5.31715 | 37144 ft | 492 kts | 95° |
| 2026-05-08 19:35 | 53.43824 | -5.20193 | 37143 ft | 497 kts | 95° |
| 2026-05-08 19:35 | 53.43509 | -5.08594 | 37138 ft | 498 kts | 95° |
| 2026-05-08 19:36 | 53.43132 | -4.96995 | 37140 ft | 499 kts | 96° |
| 2026-05-08 19:36 | 53.42733 | -4.85460 | 37133 ft | 499 kts | 96° |
| 2026-05-08 19:37 | 53.42342 | -4.73850 | 37132 ft | 499 kts | 96° |
| 2026-05-08 19:37 | 53.41956 | -4.62249 | 37120 ft | 499 kts | 96° |
| 2026-05-08 19:38 | 53.41555 | -4.50645 | 37128 ft | 499 kts | 96° |
| 2026-05-08 19:38 | 53.41129 | -4.39036 | 37131 ft | 499 kts | 96° |
| 2026-05-08 19:39 | 53.40692 | -4.27444 | 37130 ft | 499 kts | 96° |
| 2026-05-08 19:39 | 53.40250 | -4.15850 | 37132 ft | 499 kts | 96° |
| 2026-05-08 19:40 | 53.39793 | -4.04263 | 37118 ft | 498 kts | 96° |
| 2026-05-08 19:40 | 53.39735 | -3.92653 | 37127 ft | 500 kts | 86° |
| 2026-05-08 19:41 | 53.40345 | -3.81032 | 37133 ft | 500 kts | 86° |
| 2026-05-08 19:41 | 53.40924 | -3.69421 | 37129 ft | 500 kts | 87° |
| 2026-05-08 19:42 | 53.41213 | -3.57797 | 37115 ft | 498 kts | 96° |
| 2026-05-08 19:42 | 53.40702 | -3.46238 | 37116 ft | 498 kts | 96° |
| 2026-05-08 19:43 | 53.40177 | -3.34726 | 37115 ft | 498 kts | 96° |
| 2026-05-08 19:43 | 53.39658 | -3.23160 | 37111 ft | 498 kts | 94° |
| 2026-05-08 19:43 | 53.39797 | -3.17363 | 37113 ft | 500 kts | 83° |
| 2026-05-08 19:44 | 53.40483 | -3.11769 | 37112 ft | 501 kts | 73° |
| 2026-05-08 19:44 | 53.41695 | -3.06459 | 37101 ft | 488 kts | 63° |
| 2026-05-08 19:44 | 53.43349 | -3.01479 | 37114 ft | 477 kts | 58° |
| 2026-05-08 19:45 | 53.46667 | -2.91956 | 36997 ft | 473 kts | 58° |
| 2026-05-08 19:45 | 53.48289 | -2.87274 | 36726 ft | 473 kts | 58° |
| 2026-05-08 19:45 | 53.49955 | -2.82438 | 36471 ft | 473 kts | 59° |
| 2026-05-08 19:45 | 53.51571 | -2.77725 | 36070 ft | 471 kts | 59° |
| 2026-05-08 19:46 | 53.53201 | -2.72954 | 35480 ft | 469 kts | 58° |
| 2026-05-08 19:46 | 53.54815 | -2.68224 | 34920 ft | 468 kts | 58° |
| 2026-05-08 19:46 | 53.58049 | -2.58734 | 33704 ft | 466 kts | 58° |
| 2026-05-08 19:47 | 53.59656 | -2.54010 | 33161 ft | 463 kts | 58° |
| 2026-05-08 19:47 | 53.61254 | -2.49312 | 32588 ft | 461 kts | 58° |
| 2026-05-08 19:47 | 53.62835 | -2.44660 | 32017 ft | 458 kts | 59° |
| 2026-05-08 19:47 | 53.64410 | -2.40008 | 31475 ft | 456 kts | 59° |
| 2026-05-08 19:48 | 53.65976 | -2.35372 | 30933 ft | 455 kts | 59° |
| 2026-05-08 19:48 | 53.67531 | -2.30757 | 30399 ft | 452 kts | 59° |
| 2026-05-08 19:48 | 53.69086 | -2.26132 | 29818 ft | 451 kts | 60° |
| 2026-05-08 19:48 | 53.70611 | -2.21580 | 29314 ft | 446 kts | 60° |
| 2026-05-08 19:49 | 53.72166 | -2.17087 | 28823 ft | 441 kts | 54° |
| 2026-05-08 19:49 | 53.74100 | -2.13126 | 28367 ft | 434 kts | 42° |
| 2026-05-08 19:49 | 53.76420 | -2.09954 | 27907 ft | 425 kts | 30° |
| 2026-05-08 19:49 | 53.79007 | -2.07640 | 27450 ft | 416 kts | 18° |
| 2026-05-08 19:50 | 53.81709 | -2.05998 | 27021 ft | 411 kts | 15° |
| 2026-05-08 19:50 | 53.84396 | -2.04404 | 26562 ft | 408 kts | 16° |
| 2026-05-08 19:50 | 53.87062 | -2.02822 | 26102 ft | 405 kts | 16° |
| 2026-05-08 19:50 | 53.89715 | -2.01253 | 25637 ft | 402 kts | 16° |
| 2026-05-08 19:51 | 53.92351 | -1.99692 | 25162 ft | 400 kts | 16° |
| 2026-05-08 19:51 | 53.94978 | -1.98130 | 24681 ft | 399 kts | 17° |
| 2026-05-08 19:51 | 53.97595 | -1.96572 | 24189 ft | 398 kts | 17° |
| 2026-05-08 19:51 | 54.00207 | -1.95014 | 23682 ft | 398 kts | 17° |
| 2026-05-08 19:52 | 54.02819 | -1.93456 | 23132 ft | 396 kts | 17° |
| 2026-05-08 19:52 | 54.05408 | -1.91910 | 22654 ft | 393 kts | 17° |
| 2026-05-08 19:52 | 54.07983 | -1.90365 | 22161 ft | 391 kts | 17° |
| 2026-05-08 19:52 | 54.10527 | -1.88832 | 21861 ft | 384 kts | 17° |
| 2026-05-08 19:53 | 54.13022 | -1.87329 | 21241 ft | 378 kts | 17° |
| 2026-05-08 19:53 | 54.15525 | -1.86263 | 20748 ft | 363 kts | 7° |
| 2026-05-08 19:53 | 54.17965 | -1.85507 | 20289 ft | 351 kts | 8° |
| 2026-05-08 19:53 | 54.20328 | -1.84766 | 19852 ft | 340 kts | 8° |
| 2026-05-08 19:54 | 54.22616 | -1.84044 | 19432 ft | 330 kts | 8° |
| 2026-05-08 19:54 | 54.24856 | -1.83337 | 19021 ft | 327 kts | 7° |
| 2026-05-08 19:54 | 54.27097 | -1.82636 | 18604 ft | 328 kts | 7° |
| 2026-05-08 19:54 | 54.29355 | -1.81930 | 18151 ft | 330 kts | 7° |
| 2026-05-08 19:55 | 54.31612 | -1.81224 | 17725 ft | 330 kts | 8° |
| 2026-05-08 19:55 | 54.33874 | -1.80516 | 17313 ft | 330 kts | 8° |
| 2026-05-08 19:55 | 54.36129 | -1.79808 | 16899 ft | 330 kts | 8° |
| 2026-05-08 19:55 | 54.38387 | -1.79098 | 16495 ft | 330 kts | 8° |
| 2026-05-08 19:56 | 54.40650 | -1.78385 | 16089 ft | 330 kts | 8° |
| 2026-05-08 19:56 | 54.42152 | -1.77912 | 15621 ft | 336 kts | 8° |
| 2026-05-08 19:56 | 54.44473 | -1.77178 | 14896 ft | 338 kts | 9° |
| 2026-05-08 19:56 | 54.46774 | -1.76444 | 14211 ft | 335 kts | 9° |
| 2026-05-08 19:57 | 54.49049 | -1.75717 | 13496 ft | 331 kts | 9° |
| 2026-05-08 19:57 | 54.51300 | -1.74995 | 12805 ft | 326 kts | 9° |
| 2026-05-08 19:57 | 54.53509 | -1.74286 | 12150 ft | 324 kts | 9° |
| 2026-05-08 19:57 | 54.55743 | -1.73575 | 11573 ft | 327 kts | 9° |
| 2026-05-08 19:58 | 54.57988 | -1.72864 | 11017 ft | 328 kts | 9° |
| 2026-05-08 19:58 | 54.60180 | -1.72174 | 10704 ft | 310 kts | 9° |
| 2026-05-08 19:58 | 54.62263 | -1.71518 | 10242 ft | 299 kts | 9° |
| 2026-05-08 19:58 | 54.64295 | -1.70880 | 9617 ft | 295 kts | 9° |
| 2026-05-08 19:59 | 54.66297 | -1.70255 | 8944 ft | 291 kts | 9° |
| 2026-05-08 19:59 | 54.68277 | -1.69645 | 8341 ft | 288 kts | 9° |
| 2026-05-08 19:59 | 54.70243 | -1.69044 | 8164 ft | 284 kts | 9° |
| 2026-05-08 19:59 | 54.72124 | -1.68469 | 8153 ft | 267 kts | 9° |
| 2026-05-08 20:00 | 54.73911 | -1.67921 | 8156 ft | 257 kts | 9° |
| 2026-05-08 20:00 | 54.75659 | -1.67374 | 8165 ft | 254 kts | 9° |
| 2026-05-08 20:00 | 54.77394 | -1.66817 | 8162 ft | 254 kts | 9° |
| 2026-05-08 20:00 | 54.79109 | -1.66110 | 8167 ft | 254 kts | 24° |
| 2026-05-08 20:01 | 54.80588 | -1.64438 | 8177 ft | 255 kts | 38° |
| 2026-05-08 20:01 | 54.81953 | -1.62482 | 8157 ft | 255 kts | 40° |
| 2026-05-08 20:01 | 54.83306 | -1.60496 | 8158 ft | 255 kts | 40° |
| 2026-05-08 20:01 | 54.84661 | -1.58501 | 8160 ft | 255 kts | 40° |
| 2026-05-08 20:02 | 54.86014 | -1.56506 | 8169 ft | 255 kts | 40° |
| 2026-05-08 20:02 | 54.87363 | -1.54515 | 7952 ft | 253 kts | 40° |
| 2026-05-08 20:02 | 54.88714 | -1.52523 | 7382 ft | 261 kts | 40° |
| 2026-05-08 20:02 | 54.90147 | -1.50425 | 6735 ft | 272 kts | 40° |
| 2026-05-08 20:03 | 54.91528 | -1.48417 | 6606 ft | 251 kts | 40° |
| 2026-05-08 20:03 | 54.92822 | -1.46540 | 6381 ft | 236 kts | 40° |
| 2026-05-08 20:03 | 54.94052 | -1.44761 | 6203 ft | 225 kts | 40° |
| 2026-05-08 20:03 | 54.95229 | -1.43062 | 6089 ft | 214 kts | 40° |
| 2026-05-08 20:04 | 54.96324 | -1.41483 | 5924 ft | 202 kts | 40° |
| 2026-05-08 20:04 | 54.97415 | -1.39912 | 5588 ft | 200 kts | 40° |
| 2026-05-08 20:04 | 54.98475 | -1.38387 | 5254 ft | 198 kts | 40° |
| 2026-05-08 20:04 | 54.99536 | -1.36863 | 4918 ft | 197 kts | 40° |
| 2026-05-08 20:05 | 55.00584 | -1.35348 | 4579 ft | 195 kts | 40° |
| 2026-05-08 20:05 | 55.01614 | -1.33823 | 4245 ft | 194 kts | 40° |
| 2026-05-08 20:05 | 55.02618 | -1.32326 | 4021 ft | 190 kts | 40° |
| 2026-05-08 20:05 | 55.03628 | -1.30817 | 4007 ft | 192 kts | 40° |
| 2026-05-08 20:06 | 55.04645 | -1.29296 | 4009 ft | 193 kts | 40° |
| 2026-05-08 20:06 | 55.05666 | -1.27768 | 4012 ft | 193 kts | 40° |
| 2026-05-08 20:06 | 55.06693 | -1.26263 | 4010 ft | 193 kts | 35° |
| 2026-05-08 20:06 | 55.07945 | -1.25581 | 4012 ft | 191 kts | 355° |
| 2026-05-08 20:07 | 55.09227 | -1.26164 | 4013 ft | 191 kts | 338° |
| 2026-05-08 20:07 | 55.10455 | -1.27040 | 4011 ft | 191 kts | 336° |
| 2026-05-08 20:07 | 55.11614 | -1.28130 | 4004 ft | 189 kts | 315° |
| 2026-05-08 20:07 | 55.12247 | -1.30096 | 4008 ft | 187 kts | 286° |
| 2026-05-08 20:08 | 55.12561 | -1.32300 | 4007 ft | 187 kts | 281° |
| 2026-05-08 20:08 | 55.12677 | -1.34550 | 4008 ft | 186 kts | 262° |
| 2026-05-08 20:08 | 55.12291 | -1.36693 | 3992 ft | 186 kts | 245° |
| 2026-05-08 20:08 | 55.11756 | -1.38733 | 3825 ft | 181 kts | 245° |
| 2026-05-08 20:09 | 55.11240 | -1.40703 | 3611 ft | 176 kts | 245° |
| 2026-05-08 20:09 | 55.10738 | -1.42618 | 3383 ft | 172 kts | 245° |
| 2026-05-08 20:09 | 55.10245 | -1.44497 | 3150 ft | 168 kts | 245° |
| 2026-05-08 20:09 | 55.09764 | -1.46333 | 2925 ft | 165 kts | 245° |
| 2026-05-08 20:10 | 55.09286 | -1.48151 | 2705 ft | 164 kts | 245° |
| 2026-05-08 20:10 | 55.08814 | -1.49950 | 2480 ft | 163 kts | 245° |
| 2026-05-08 20:10 | 55.08341 | -1.51748 | 2260 ft | 162 kts | 245° |
| 2026-05-08 20:10 | 55.07875 | -1.53517 | 2045 ft | 162 kts | 245° |
| 2026-05-08 20:11 | 55.07411 | -1.55281 | 1823 ft | 156 kts | 245° |
| 2026-05-08 20:11 | 55.06977 | -1.56929 | 1625 ft | 143 kts | 245° |
| 2026-05-08 20:11 | 55.06573 | -1.58461 | 1433 ft | 137 kts | 245° |
| 2026-05-08 20:11 | 55.06180 | -1.59959 | 1240 ft | 134 kts | 245° |
| 2026-05-08 20:12 | 55.05788 | -1.61430 | 1038 ft | 133 kts | 244° |
| 2026-05-08 20:12 | 55.05403 | -1.62890 | 850 ft | 132 kts | 244° |
| 2026-05-08 20:12 | 55.05018 | -1.64344 | 669 ft | 134 kts | 244° |
| 2026-05-08 20:12 | 55.04622 | -1.65843 | 502 ft | 136 kts | 244° |
| 2026-05-08 20:13 | 55.04231 | -1.67327 | 314 ft | 135 kts | 244° |
| 2026-05-08 20:13 | 55.03867 | -1.68707 | 253 ft | 112 kts | 245° |
| 2026-05-08 20:13 | 55.03659 | -1.69490 | 263 ft | 47 kts | 245° |
| 2026-05-08 20:13 | 55.03581 | -1.69875 | 265 ft | 25 kts | 272° |
| 2026-05-08 20:14 | 55.03592 | -1.70114 | 265 ft | 14 kts | 274° |
| 2026-05-08 20:14 | 55.03598 | -1.70260 | 261 ft | 11 kts | 274° |
| 2026-05-08 20:14 | 55.03600 | -1.70305 | 261 ft | 0 kts | 274° |
| 2026-05-08 20:14 | 55.03601 | -1.70323 | 261 ft | 7 kts | 274° |
| 2026-05-08 20:15 | 55.03601 | -1.70440 | 262 ft | 10 kts | 265° |
| 2026-05-08 20:15 | 55.03592 | -1.70596 | 264 ft | 13 kts | 266° |
| 2026-05-08 20:15 | 55.03595 | -1.70738 | 265 ft | 11 kts | 276° |
| 2026-05-08 20:15 | 55.03612 | -1.70840 | 265 ft | 7 kts | 321° |
| 2026-05-08 20:16 | 55.03648 | -1.70847 | 266 ft | 2 kts | 2° |
| 2026-05-08 20:16 | 55.03654 | -1.70846 | 266 ft | 1 kts | 2° |
| 2026-05-08 20:16 | 55.03663 | -1.70845 | 266 ft | 0 kts | 3° |
| 2026-05-08 20:16 | 55.03665 | -1.70845 | 266 ft | 0 kts | 3° |